Time;durP1;ratioP1;P1;durP2;ratioP2;P2;SDS_P1;SDS_P2;PMS_P1;PMS_P2;Temp;Humidity;BMP_temperature;BMP_pressure;BME280_temperature;BME280_humidity;BME280_pressure;Samples;Min_cycle;Max_cycle;Signal;HPM_P1;HPM_P2
2021/09/20 00:02:40;;;;;;;;;12.00;12.00;;;;;17.37;81.20;100593.13;5158715;27;8860;-69
2021/09/20 00:05:36;;;;;;;;;10.00;10.00;;;;;17.42;81.38;100586.41;5154391;27;8825;-69
2021/09/20 00:08:32;;;;;;;;;11.25;11.25;;;;;17.35;81.89;100583.50;5154242;27;8836;-69
2021/09/20 00:11:27;;;;;;;;;11.67;11.67;;;;;17.36;81.78;100579.53;5140457;27;8817;-69
2021/09/20 00:14:23;;;;;;;;;12.00;12.00;;;;;17.32;81.63;100582.25;5154190;27;8905;-69
2021/09/20 00:17:19;;;;;;;;;12.00;12.00;;;;;17.40;82.04;100581.16;5167669;27;8857;-69
2021/09/20 00:20:15;;;;;;;;;10.50;10.50;;;;;17.33;82.41;100581.09;5154073;27;8841;-69
2021/09/20 00:23:11;;;;;;;;;11.00;11.00;;;;;17.39;82.47;100581.56;5158032;27;8841;-69
2021/09/20 00:26:06;;;;;;;;;13.50;13.50;;;;;17.29;82.93;100579.44;5154240;27;8829;-69
2021/09/20 00:29:02;;;;;;;;;12.75;12.75;;;;;17.31;82.90;100580.66;5153878;27;8821;-68
2021/09/20 00:31:57;;;;;;;;;11.75;11.75;;;;;17.34;82.85;100593.09;5153924;27;8832;-68
2021/09/20 00:34:53;;;;;;;;;15.00;15.00;;;;;17.38;82.43;100589.13;5153858;27;8829;-69
2021/09/20 00:37:49;;;;;;;;;12.50;12.50;;;;;17.31;83.06;100594.63;5153884;27;9565;-69
2021/09/20 00:40:45;;;;;;;;;12.00;12.00;;;;;17.40;82.79;100586.75;5140964;27;8943;-69
2021/09/20 00:43:40;;;;;;;;;11.75;11.75;;;;;17.37;82.90;100598.72;5153636;27;9678;-69
2021/09/20 00:46:36;;;;;;;;;8.25;8.25;;;;;17.36;82.49;100611.06;5153843;27;8836;-69
2021/09/20 00:49:31;;;;;;;;;11.25;10.25;;;;;17.25;82.64;100618.50;5153887;27;8829;-69
2021/09/20 00:52:27;;;;;;;;;15.50;13.50;;;;;17.35;82.57;100617.84;5157689;27;8829;-68
2021/09/20 00:55:23;;;;;;;;;11.50;11.50;;;;;17.34;82.82;100619.03;5172619;27;8819;-68
2021/09/20 00:58:18;;;;;;;;;12.25;12.25;;;;;17.32;83.74;100626.19;5174417;27;8930;-70
2021/09/20 01:01:14;;;;;;;;;10.00;10.00;;;;;17.23;83.69;100621.69;5174545;27;8973;-70
2021/09/20 01:04:10;;;;;;;;;10.25;10.25;;;;;17.24;83.70;100625.28;5158519;27;8821;-70
2021/09/20 01:07:05;;;;;;;;;12.50;12.50;;;;;17.02;84.64;100623.34;5153645;27;8825;-71
2021/09/20 01:10:03;;;;;;;;;11.75;11.75;;;;;16.81;85.93;100618.25;5153676;27;8817;-70
2021/09/20 01:12:58;;;;;;;;;11.00;11.00;;;;;16.90;85.84;100619.59;5153563;27;8863;-70
2021/09/20 01:15:54;;;;;;;;;14.50;13.75;;;;;17.02;84.92;100614.97;5153542;27;8956;-69
2021/09/20 01:18:50;;;;;;;;;12.33;12.33;;;;;16.82;85.03;100611.50;5154641;27;8928;-70
2021/09/20 01:21:46;;;;;;;;;13.25;13.00;;;;;16.90;84.58;100605.63;5153511;27;9803;-70
2021/09/20 01:24:43;;;;;;;;;12.50;12.50;;;;;16.96;85.44;100594.94;5157011;27;8819;-70
2021/09/20 01:27:39;;;;;;;;;11.67;11.67;;;;;16.91;86.43;100601.66;5174311;27;8822;-70
2021/09/20 01:30:35;;;;;;;;;11.50;11.50;;;;;17.09;85.52;100601.09;5173857;27;9126;-70
2021/09/20 01:33:31;;;;;;;;;12.67;12.67;;;;;17.13;85.64;100594.41;5174014;27;8845;-70
2021/09/20 01:36:27;;;;;;;;;10.25;10.25;;;;;17.09;85.92;100601.09;5177232;27;9080;-69
2021/09/20 01:39:26;;;;;;;;;10.00;10.00;;;;;17.18;84.96;100598.88;5172380;27;8860;-70
2021/09/20 01:42:22;;;;;;;;;13.25;13.25;;;;;17.12;84.93;100603.16;5160041;27;9020;-69
2021/09/20 01:45:17;;;;;;;;;10.75;10.75;;;;;17.11;85.03;100591.19;5178039;27;8845;-69
2021/09/20 01:48:14;;;;;;;;;10.75;10.75;;;;;17.17;84.85;100589.66;5177741;27;8953;-70
2021/09/20 01:51:09;;;;;;;;;12.67;12.67;;;;;17.01;86.35;100589.03;5177880;27;8834;-69
2021/09/20 01:54:06;;;;;;;;;15.50;15.50;;;;;17.02;87.08;100589.81;5166206;27;9028;-70
2021/09/20 01:57:01;;;;;;;;;16.00;15.25;;;;;17.04;86.82;100587.47;5156830;27;8947;-70
2021/09/20 01:59:57;;;;;;;;;13.00;13.00;;;;;17.04;85.74;100596.66;5156950;27;8904;-70
2021/09/20 02:02:53;;;;;;;;;11.33;11.33;;;;;16.95;86.37;100608.13;5156869;27;8918;-70
2021/09/20 02:05:48;;;;;;;;;10.50;10.50;;;;;17.09;85.95;100606.69;5157088;27;8994;-70
2021/09/20 02:08:44;;;;;;;;;13.00;13.00;;;;;17.03;86.54;100599.84;5156692;27;8935;-70
2021/09/20 02:11:40;;;;;;;;;14.50;14.50;;;;;16.97;86.42;100592.97;5156725;27;8825;-70
2021/09/20 02:14:36;;;;;;;;;12.67;12.67;;;;;16.90;87.48;100583.28;5156524;27;8833;-70
2021/09/20 02:17:31;;;;;;;;;13.25;13.25;;;;;16.84;88.09;100573.63;5159029;27;8898;-69
2021/09/20 02:20:27;;;;;;;;;13.50;13.50;;;;;16.91;87.46;100582.09;5156562;27;8944;-69
2021/09/20 02:23:22;;;;;;;;;15.00;15.00;;;;;16.66;87.29;100586.47;5156457;27;8821;-69
2021/09/20 02:26:18;;;;;;;;;13.33;13.33;;;;;16.58;87.84;100601.50;5142630;27;8917;-69
2021/09/20 02:29:13;;;;;;;;;16.67;16.67;;;;;16.75;88.25;100594.63;5156322;27;8897;-69
2021/09/20 02:32:09;;;;;;;;;12.67;12.67;;;;;16.80;87.54;100606.28;5156338;27;9137;-69
2021/09/20 02:35:06;;;;;;;;;14.75;14.75;;;;;16.89;87.60;100597.63;5156503;27;8936;-68
2021/09/20 02:38:01;;;;;;;;;13.00;13.00;;;;;16.85;87.25;100605.13;5165154;27;8815;-69
2021/09/20 02:40:58;;;;;;;;;12.67;12.67;;;;;16.87;87.34;100600.00;5177182;27;8946;-69
2021/09/20 02:43:54;;;;;;;;;15.67;15.67;;;;;16.89;87.41;100614.41;5160800;27;8946;-68
2021/09/20 02:46:50;;;;;;;;;16.33;16.33;;;;;17.01;87.00;100628.13;5142055;27;8991;-68
2021/09/20 02:49:45;;;;;;;;;15.00;15.00;;;;;17.00;86.81;100634.91;5156044;27;9002;-70
2021/09/20 02:52:41;;;;;;;;;15.67;15.67;;;;;16.72;87.15;100635.28;5155940;27;8958;-70
2021/09/20 02:55:37;;;;;;;;;11.33;11.33;;;;;16.64;86.74;100639.09;5156131;27;9801;-70
2021/09/20 02:58:32;;;;;;;;;13.00;13.00;;;;;16.81;86.45;100637.81;5155616;27;8994;-70
2021/09/20 03:01:28;;;;;;;;;13.33;13.33;;;;;16.83;86.39;100643.81;5167752;27;9226;-70
2021/09/20 03:04:23;;;;;;;;;12.33;12.33;;;;;16.84;86.33;100635.06;5176636;27;9087;-70
2021/09/20 03:07:19;;;;;;;;;15.33;15.33;;;;;16.86;85.45;100637.47;5161850;27;10193;-70
2021/09/20 03:10:15;;;;;;;;;14.00;14.00;;;;;16.84;85.39;100637.84;5176648;27;9116;-69
2021/09/20 03:13:10;;;;;;;;;14.00;14.00;;;;;16.68;85.79;100632.38;5176201;27;9027;-69
2021/09/20 03:16:06;;;;;;;;;14.33;14.33;;;;;16.75;85.41;100626.13;5166961;27;9004;-70
2021/09/20 03:19:01;;;;;;;;;10.00;10.00;;;;;16.75;85.51;100636.50;5164797;27;8940;-69
2021/09/20 03:21:57;;;;;;;;;12.67;12.67;;;;;16.79;84.57;100634.56;5160232;27;8817;-69
2021/09/20 03:24:53;;;;;;;;;11.25;11.25;;;;;16.75;84.72;100634.53;5167050;27;9063;-70
2021/09/20 03:27:49;;;;;;;;;12.00;12.00;;;;;16.73;84.65;100634.09;5166164;27;8830;-70
2021/09/20 03:30:44;;;;;;;;;14.00;14.00;;;;;16.74;84.29;100634.91;5152984;27;8905;-69
2021/09/20 03:33:40;;;;;;;;;13.00;13.00;;;;;16.74;84.02;100632.09;5155010;27;8849;-69
2021/09/20 03:36:35;;;;;;;;;11.00;11.00;;;;;16.76;84.11;100636.13;5154921;27;8837;-69
2021/09/20 03:39:31;;;;;;;;;12.33;12.33;;;;;16.75;84.05;100645.69;5162678;27;8839;-70
2021/09/20 03:42:26;;;;;;;;;13.25;13.25;;;;;16.77;83.87;100646.13;5157036;27;8908;-70
2021/09/20 03:45:22;;;;;;;;;13.75;13.75;;;;;16.77;83.81;100648.91;5161963;27;8823;-69
2021/09/20 03:48:17;;;;;;;;;10.00;10.00;;;;;16.72;84.07;100649.25;5148157;27;8972;-70
2021/09/20 03:51:13;;;;;;;;;11.00;11.00;;;;;16.71;84.29;100642.00;5165239;27;8992;-69
2021/09/20 03:54:09;;;;;;;;;4.75;4.75;;;;;16.70;84.44;100646.00;5162229;27;9328;-69
2021/09/20 03:57:04;;;;;;;;;13.67;13.00;;;;;16.72;84.30;100643.66;5154045;27;8851;-70
2021/09/20 04:00:01;;;;;;;;;17.00;17.00;;;;;16.66;84.61;100659.06;5159090;27;9178;-69
2021/09/20 04:02:56;;;;;;;;;16.00;15.67;;;;;16.70;83.89;100656.34;5149353;27;8923;-70
2021/09/20 04:05:52;;;;;;;;;15.25;15.25;;;;;16.65;83.89;100658.25;5159765;27;8975;-70
2021/09/20 04:08:47;;;;;;;;;17.00;17.00;;;;;16.59;84.50;100654.16;5162630;27;8825;-70
2021/09/20 04:11:43;;;;;;;;;14.00;13.33;;;;;16.63;84.33;100657.00;5162656;27;8893;-69
2021/09/20 04:14:39;;;;;;;;;15.00;15.00;;;;;16.64;84.36;100664.22;5147359;27;8912;-69
2021/09/20 04:17:35;;;;;;;;;16.67;16.00;;;;;16.73;83.86;100661.22;5162769;27;8931;-72
2021/09/20 04:20:30;;;;;;;;;14.00;14.00;;;;;16.72;83.48;100667.97;5164090;27;9251;-71
2021/09/20 04:23:26;;;;;;;;;17.00;16.67;;;;;16.81;83.82;100665.75;5163378;27;9002;-72
2021/09/20 04:26:23;;;;;;;;;18.33;18.33;;;;;16.61;83.63;100664.97;5162374;27;9070;-72
2021/09/20 04:29:18;;;;;;;;;16.00;16.00;;;;;16.74;82.61;100674.00;5161503;27;9074;-71
2021/09/20 04:32:15;;;;;;;;;20.00;20.00;;;;;16.74;83.07;100674.78;5161561;27;9500;-72
2021/09/20 04:35:11;;;;;;;;;18.33;17.67;;;;;16.82;82.52;100678.50;5164014;27;9257;-71
2021/09/20 04:38:08;;;;;;;;;18.00;18.00;;;;;16.87;82.17;100676.22;5158159;27;9884;-72
2021/09/20 04:41:03;;;;;;;;;16.00;16.00;;;;;16.77;82.08;100676.84;5163337;27;9325;-71
2021/09/20 04:43:59;;;;;;;;;17.00;17.00;;;;;16.97;81.86;100685.16;5157982;27;9057;-71
2021/09/20 04:46:55;;;;;;;;;18.33;18.00;;;;;17.11;81.33;100690.97;5161787;27;9089;-71
2021/09/20 04:49:50;;;;;;;;;15.00;15.00;;;;;17.21;80.67;100699.50;5164211;27;9147;-70
2021/09/20 04:52:46;;;;;;;;;9.00;9.00;;;;;17.20;79.00;100711.88;5164113;27;9149;-70
2021/09/20 04:55:43;;;;;;;;;11.25;11.25;;;;;17.23;78.68;100710.31;5157905;27;9480;-71
2021/09/20 04:58:39;;;;;;;;;15.00;12.50;;;;;17.21;78.63;100718.25;5158463;27;8807;-72
2021/09/20 05:01:35;;;;;;;;;11.25;11.25;;;;;17.23;78.62;100721.47;5163507;27;8889;-70
2021/09/20 05:04:30;;;;;;;;;10.75;10.75;;;;;17.21;78.59;100729.44;5160860;27;8834;-72
2021/09/20 05:07:26;;;;;;;;;10.50;10.50;;;;;17.24;78.31;100723.91;5162320;27;8833;-72
2021/09/20 05:10:22;;;;;;;;;10.00;10.00;;;;;17.20;77.72;100725.84;5166827;27;8835;-71
2021/09/20 05:13:18;;;;;;;;;12.75;12.75;;;;;17.11;76.65;100733.69;5149992;27;8835;-73
2021/09/20 05:16:14;;;;;;;;;12.75;12.75;;;;;17.34;76.25;100730.06;5168690;27;9130;-71
2021/09/20 05:19:11;;;;;;;;;16.00;16.00;;;;;17.37;75.89;100729.28;5167878;27;8876;-72
2021/09/20 05:22:06;;;;;;;;;12.00;12.00;;;;;17.32;74.83;100736.00;5152812;27;8817;-71
2021/09/20 05:25:03;;;;;;;;;19.33;17.67;;;;;16.98;75.29;100725.88;5156381;27;8899;-71
2021/09/20 05:28:00;;;;;;;;;15.33;15.33;;;;;17.01;75.15;100731.50;5167411;27;9164;-71
2021/09/20 05:30:56;;;;;;;;;20.67;20.67;;;;;16.99;73.14;100727.47;5167407;27;9070;-71
2021/09/20 05:33:51;;;;;;;;;20.67;20.67;;;;;17.09;73.71;100735.22;5166472;27;9385;-71
2021/09/20 05:36:47;;;;;;;;;20.67;20.67;;;;;17.22;72.55;100733.84;5164486;27;9290;-70
2021/09/20 05:39:43;;;;;;;;;23.00;23.00;;;;;17.23;69.92;100735.44;5164602;27;9154;-71
2021/09/20 05:42:40;;;;;;;;;18.00;18.00;;;;;17.31;67.83;100739.16;5164967;27;9295;-71
2021/09/20 05:45:37;;;;;;;;;14.00;14.00;;;;;17.33;66.08;100747.97;5161856;27;8995;-71
2021/09/20 05:48:32;;;;;;;;;12.00;12.00;;;;;17.27;65.54;100746.72;5166704;27;8930;-71
2021/09/20 05:51:28;;;;;;;;;10.25;10.25;;;;;17.33;66.83;100746.03;5167211;27;8834;-71
2021/09/20 05:54:23;;;;;;;;;10.75;10.75;;;;;17.43;66.53;100747.34;5161332;27;9709;-71
2021/09/20 05:57:19;;;;;;;;;10.50;10.50;;;;;17.56;65.90;100753.53;5166923;27;8827;-70
2021/09/20 06:00:15;;;;;;;;;12.25;12.25;;;;;17.59;65.99;100747.19;5166867;27;8804;-70
2021/09/20 06:03:11;;;;;;;;;11.00;11.00;;;;;17.73;66.01;100759.44;5164927;27;8811;-71
2021/09/20 06:06:06;;;;;;;;;10.50;10.50;;;;;17.78;65.50;100755.47;5153051;27;8962;-70
2021/09/20 06:09:02;;;;;;;;;9.00;9.00;;;;;17.94;65.40;100761.72;5162046;27;8901;-70
2021/09/20 06:11:57;;;;;;;;;9.00;9.00;;;;;18.14;64.75;100767.16;5167100;27;8833;-70
2021/09/20 06:14:53;;;;;;;;;7.25;7.25;;;;;18.11;62.49;100757.53;5166301;27;8853;-70
2021/09/20 06:17:48;;;;;;;;;8.00;8.00;;;;;17.99;62.12;100761.38;5165149;27;8825;-70
2021/09/20 06:20:44;;;;;;;;;5.50;5.50;;;;;17.71;58.04;100766.56;5165230;27;8862;-71
2021/09/20 06:23:40;;;;;;;;;6.00;6.00;;;;;17.46;60.08;100755.78;5164598;27;8844;-70
2021/09/20 06:26:36;;;;;;;;;5.25;5.25;;;;;17.46;61.36;100766.16;5166291;27;8827;-69
2021/09/20 06:29:31;;;;;;;;;5.75;5.75;;;;;17.67;61.50;100771.28;5166403;27;8825;-70
2021/09/20 06:32:27;;;;;;;;;7.50;7.50;;;;;17.62;62.08;100780.78;5148523;27;8864;-71
2021/09/20 06:35:22;;;;;;;;;8.00;8.00;;;;;17.91;59.41;100773.66;5154326;27;8827;-70
2021/09/20 07:47:26;;;;;;;;;1.00;1.00;;;;;18.74;47.90;100834.31;5439625;23;8890;-75
2021/09/20 07:49:54;;;;;;;;;1.25;1.25;;;;;18.75;48.44;100828.31;4878671;29;8982;-76
2021/09/20 07:52:22;;;;;;;;;2.25;2.25;;;;;18.99;49.63;100824.19;4880457;29;8871;-76
2021/09/20 07:55:19;;;;;;;;;4.00;4.00;;;;;19.42;49.85;100819.78;4880490;29;9000;-77
2021/09/20 07:58:15;;;;;;;;;3.25;3.25;;;;;19.15;48.89;100823.94;4879537;29;8850;-77
2021/09/20 08:01:10;;;;;;;;;2.75;2.75;;;;;18.94;50.60;100816.13;4880169;29;8870;-77
2021/09/20 08:04:06;;;;;;;;;3.00;3.00;;;;;19.08;49.51;100821.06;4879286;29;8882;-76
2021/09/20 08:07:02;;;;;;;;;3.00;3.00;;;;;19.45;48.46;100818.19;4878923;29;8913;-77
2021/09/20 08:09:57;;;;;;;;;2.00;2.00;;;;;19.45;48.71;100812.56;4878966;29;8882;-76
2021/09/20 08:12:53;;;;;;;;;3.00;3.00;;;;;19.34;48.68;100820.09;4879006;29;8973;-75
2021/09/20 08:15:49;;;;;;;;;2.00;2.00;;;;;19.32;47.18;100817.69;4879216;29;8878;-74
2021/09/20 08:18:44;;;;;;;;;2.00;2.00;;;;;19.17;46.81;100813.97;4879174;29;8885;-77
2021/09/20 08:21:40;;;;;;;;;3.25;3.25;;;;;19.49;46.80;100821.84;4861856;29;8845;-75
2021/09/20 08:24:36;;;;;;;;;6.00;6.00;;;;;19.85;46.88;100810.88;4860691;29;8853;-77
2021/09/20 08:27:31;;;;;;;;;3.75;3.75;;;;;19.73;45.51;100805.63;4879253;29;9613;-74
2021/09/20 08:30:28;;;;;;;;;5.00;5.00;;;;;19.63;46.53;100807.97;4863781;29;8903;-75
2021/09/20 08:33:24;;;;;;;;;3.00;3.00;;;;;19.71;46.33;100806.00;4887084;29;8893;-74
2021/09/20 08:36:19;;;;;;;;;3.00;3.00;;;;;20.01;46.15;100805.78;4879641;29;8846;-76
2021/09/20 08:39:15;;;;;;;;;5.75;5.75;;;;;19.86;46.59;100806.88;4878918;29;8842;-75
2021/09/20 08:42:14;;;;;;;;;4.00;4.00;;;;;19.64;45.97;100812.38;4877727;29;8957;-75
2021/09/20 08:45:14;;;;;;;;;4.50;4.50;;;;;19.61;47.09;100809.53;4868340;29;8865;-77
2021/09/20 08:48:09;;;;;;;;;4.50;4.50;;;;;20.07;47.12;100798.59;4860542;29;8881;-75
2021/09/20 08:51:06;;;;;;;;;4.00;4.00;;;;;20.59;46.30;100798.44;4861368;29;8874;-77
2021/09/20 08:54:02;;;;;;;;;3.25;3.25;;;;;19.76;46.41;100807.63;4872795;29;8905;-76
2021/09/20 08:57:16;;;;;;;;;4.75;4.75;;;;;20.24;45.95;100803.50;4887088;29;9624;-75
2021/09/20 09:00:13;;;;;;;;;2.00;2.00;;;;;;;;4898677;29;8860;-77
2021/09/20 09:03:09;;;;;;;;;4.25;4.25;;;;;21.19;45.58;100800.56;4885792;29;8939;-75
2021/09/20 09:06:04;;;;;;;;;4.00;4.00;;;;;21.41;44.56;100807.84;4886274;29;8876;-76
2021/09/20 09:09:00;;;;;;;;;2.25;2.25;;;;;20.52;44.16;100802.03;4885192;29;8910;-77
2021/09/20 09:12:14;;;;;;;;;4.00;4.00;;;;;21.11;44.43;100802.56;4886711;29;8926;-76
2021/09/20 09:15:13;;;;;;;;;2.25;2.25;;;;;21.24;43.31;100809.44;4887497;29;8868;-77
2021/09/20 09:18:09;;;;;;;;;2.00;2.00;;;;;20.79;43.88;100802.53;4886736;29;8901;-77
2021/09/20 09:21:18;;;;;;;;;1.00;1.00;;;;;20.77;44.25;100796.47;4887074;29;8886;-76
2021/09/20 09:24:17;;;;;;;;;1.75;1.75;;;;;21.63;44.28;100797.38;4886243;29;8868;-77
2021/09/20 09:27:12;;;;;;;;;2.00;2.00;;;;;22.35;42.47;100798.03;4887234;29;8874;-76
2021/09/20 09:30:20;;;;;;;;;2.75;2.75;;;;;22.06;41.62;100797.28;4884637;29;8874;-77
2021/09/20 09:33:19;;;;;;;;;4.00;4.00;;;;;22.47;41.37;100809.66;4884597;29;8991;-76
2021/09/20 09:36:15;;;;;;;;;3.00;3.00;;;;;22.36;40.96;100805.25;4882571;29;8882;-79
2021/09/20 09:39:11;;;;;;;;;2.20;2.20;;;;;22.09;41.69;100817.03;4888023;29;8888;-77
2021/09/20 09:42:36;;;;;;;;;3.50;3.50;;;;;22.44;42.12;100816.09;4885372;29;9743;-76
2021/09/20 09:45:35;;;;;;;;;3.50;3.50;;;;;21.97;41.72;100823.06;4882807;29;9028;-75
2021/09/20 09:48:32;;;;;;;;;3.00;3.00;;;;;21.16;42.01;100812.59;4886532;29;8844;-78
2021/09/20 09:51:28;;;;;;;;;1.25;1.25;;;;;21.64;42.07;100815.88;4883321;29;8858;-78
2021/09/20 09:54:29;;;;;;;;;2.00;2.00;;;;;22.37;41.54;100818.13;4888376;29;8976;-76
2021/09/20 09:57:26;;;;;;;;;1.75;1.75;;;;;22.22;40.38;100825.81;4888964;29;8870;-77
2021/09/20 10:00:22;;;;;;;;;2.75;2.75;;;;;22.24;40.45;100823.44;4888038;29;8870;-78
2021/09/20 10:03:18;;;;;;;;;3.25;3.25;;;;;21.77;41.67;100811.41;4886526;29;8862;-77
2021/09/20 10:06:14;;;;;;;;;4.00;4.00;;;;;21.64;41.66;100810.25;4883685;29;8902;-78
2021/09/20 10:09:19;;;;;;;;;2.25;2.25;;;;;21.87;41.86;100810.59;4887065;29;8852;-77
2021/09/20 10:12:15;;;;;;;;;1.00;1.00;;;;;21.60;41.20;100812.25;4886707;29;8883;-76
2021/09/20 10:15:14;;;;;;;;;0.25;0.25;;;;;21.63;40.65;100803.81;4886232;29;8854;-77
2021/09/20 10:18:10;;;;;;;;;1.00;1.00;;;;;21.47;40.95;100796.97;4880438;29;8875;-75
2021/09/20 10:21:06;;;;;;;;;1.25;1.25;;;;;22.07;40.19;100802.50;4884036;29;8862;-78
2021/09/20 10:24:02;;;;;;;;;1.00;1.00;;;;;21.96;39.98;100807.38;4878094;29;9648;-76
2021/09/20 10:26:58;;;;;;;;;2.25;2.25;;;;;22.15;40.07;100806.94;4862288;29;8880;-78
2021/09/20 10:30:18;;;;;;;;;1.00;1.00;;;;;22.76;38.85;100798.19;4879601;29;8882;-78
2021/09/20 10:33:14;;;;;;;;;0.60;0.60;;;;;22.74;38.69;100800.63;4881235;29;8870;-80
2021/09/20 10:36:09;;;;;;;;;0.00;0.00;;;;;23.71;39.11;100801.56;4881131;29;8882;-79
2021/09/20 10:39:05;;;;;;;;;1.00;1.00;;;;;24.25;37.05;100804.63;4879822;29;8874;-78
2021/09/20 10:42:00;;;;;;;;;1.00;1.00;;;;;24.27;36.65;100813.47;4879438;29;8925;-78
2021/09/20 10:44:56;;;;;;;;;1.00;1.00;;;;;23.75;38.01;100804.34;4880726;29;8886;-80
2021/09/20 10:47:51;;;;;;;;;2.00;2.00;;;;;23.61;38.26;100808.09;4880469;29;8871;-77
2021/09/20 10:51:11;;;;;;;;;1.00;1.00;;;;;24.31;36.72;100807.78;4881061;29;8998;-77
2021/09/20 10:54:10;;;;;;;;;1.00;1.00;;;;;23.16;37.78;100802.41;4862508;29;8900;-76
2021/09/20 10:57:14;;;;;;;;;4.20;3.60;;;;;22.85;38.68;100815.53;4862274;29;8881;-79
2021/09/20 11:00:24;;;;;;;;;2.20;2.20;;;;;23.43;37.14;100807.44;4880400;29;8981;-78
2021/09/20 11:03:46;;;;;;;;;1.00;1.00;;;;;24.40;36.82;100806.06;4880467;29;8867;-79
2021/09/20 11:06:43;;;;;;;;;1.00;1.00;;;;;23.19;38.05;100812.88;4874800;29;8957;-77
2021/09/20 11:10:07;;;;;;;;;1.00;1.00;;;;;22.97;37.58;100817.06;4872486;29;8870;-79
2021/09/20 11:13:06;;;;;;;;;1.60;1.60;;;;;23.35;38.52;100815.16;4880074;29;8878;-77
2021/09/20 11:16:02;;;;;;;;;1.00;1.00;;;;;23.49;37.54;100808.59;4880619;29;8885;-77
2021/09/20 11:18:57;;;;;;;;;1.60;1.60;;;;;23.27;36.69;100805.94;4873943;29;8869;-76
2021/09/20 11:22:05;;;;;;;;;2.40;2.40;;;;;23.22;36.84;100811.22;4861778;29;8881;-77
2021/09/20 11:25:09;;;;;;;;;4.60;4.60;;;;;23.21;37.18;100806.81;4876676;29;8894;-77
2021/09/20 11:28:05;;;;;;;;;1.60;1.60;;;;;23.12;37.76;100804.44;4880131;29;8962;-77
2021/09/20 11:31:00;;;;;;;;;2.00;2.00;;;;;22.40;38.73;100809.69;4889307;29;8907;-78
2021/09/20 11:33:57;;;;;;;;;0.60;0.60;;;;;23.07;37.57;100798.44;4877469;29;8925;-76
2021/09/20 11:36:53;;;;;;;;;0.80;0.80;;;;;23.00;37.41;100808.56;4879908;29;8881;-78
2021/09/20 11:39:48;;;;;;;;;1.00;1.00;;;;;22.99;36.84;100814.59;4879533;29;8874;-77
2021/09/20 11:42:52;;;;;;;;;0.80;0.80;;;;;22.36;38.42;100808.88;4861486;29;8881;-77
2021/09/20 11:45:48;;;;;;;;;2.00;2.00;;;;;22.22;39.39;100817.38;4861684;29;9671;-76
2021/09/20 11:48:43;;;;;;;;;0.60;0.60;;;;;22.37;39.22;100806.84;4878565;29;8884;-77
2021/09/20 11:51:39;;;;;;;;;1.20;1.20;;;;;22.91;38.01;100815.88;4886759;29;8938;-77
2021/09/20 11:54:37;;;;;;;;;0.00;0.00;;;;;22.42;38.58;100820.53;4879739;29;8882;-78
2021/09/20 11:57:35;;;;;;;;;1.80;1.80;;;;;21.82;39.76;100824.28;4879624;29;9597;-78
2021/09/20 12:00:33;;;;;;;;;0.60;0.60;;;;;22.19;39.37;100829.47;4879290;29;8862;-77
2021/09/20 12:03:29;;;;;;;;;1.40;1.40;;;;;21.87;40.00;100818.25;4879919;29;8867;-76
2021/09/20 12:06:27;;;;;;;;;1.00;1.00;;;;;21.48;40.15;100816.28;4860975;29;9631;-78
2021/09/20 12:09:22;;;;;;;;;1.00;1.00;;;;;21.46;40.66;100823.50;4870898;29;8861;-78
2021/09/20 12:12:18;;;;;;;;;3.00;3.00;;;;;21.10;42.66;100817.84;4872454;29;8867;-76
2021/09/20 12:15:15;;;;;;;;;1.75;1.75;;;;;21.20;41.85;100819.84;4879050;29;9724;-77
2021/09/20 12:18:14;;;;;;;;;3.00;3.00;;;;;20.85;41.80;100814.16;4879231;29;8851;-76
2021/09/20 12:21:12;;;;;;;;;1.25;1.25;;;;;20.82;41.11;100813.75;4879280;29;8873;-74
2021/09/20 12:24:08;;;;;;;;;0.75;0.75;;;;;20.80;41.74;100818.97;4879185;29;8874;-78
2021/09/20 12:27:05;;;;;;;;;1.00;1.00;;;;;20.51;42.72;100828.53;4879091;29;8895;-75
2021/09/20 12:30:01;;;;;;;;;1.00;1.00;;;;;20.16;42.91;100827.09;4878930;29;8886;-77
2021/09/20 12:33:10;;;;;;;;;2.00;2.00;;;;;20.02;43.70;100829.84;4861415;29;8983;-76
2021/09/20 12:36:17;;;;;;;;;1.00;1.00;;;;;20.00;43.42;100833.03;4863452;29;9693;-77
2021/09/20 12:39:17;;;;;;;;;1.25;1.25;;;;;19.70;43.84;100822.00;4879192;29;8870;-75
2021/09/20 12:42:13;;;;;;;;;1.00;1.00;;;;;20.05;43.84;100823.44;4878474;29;8883;-76
2021/09/20 12:45:19;;;;;;;;;2.00;2.00;;;;;20.21;43.66;100831.56;4879068;29;8843;-77
2021/09/20 12:48:15;;;;;;;;;1.00;1.00;;;;;19.80;44.86;100823.31;4877893;29;8957;-75
2021/09/20 12:51:14;;;;;;;;;1.00;1.00;;;;;19.30;45.39;100824.88;4878961;29;9614;-76
2021/09/20 12:54:23;;;;;;;;;2.25;2.25;;;;;19.81;45.22;100827.72;4878824;29;9636;-77
2021/09/20 12:57:29;;;;;;;;;2.00;2.00;;;;;20.04;43.32;100826.66;4878277;29;8875;-76
2021/09/20 13:00:36;;;;;;;;;1.00;1.00;;;;;20.12;42.92;100834.72;4878140;29;8897;-76
2021/09/20 13:03:41;;;;;;;;;1.00;1.00;;;;;20.39;42.35;100817.59;4878766;29;8847;-77
2021/09/20 13:06:36;;;;;;;;;1.00;1.00;;;;;20.44;42.20;100829.28;4878436;29;9093;-76
2021/09/20 13:09:34;;;;;;;;;1.00;1.00;;;;;19.59;43.96;100820.34;4878829;29;8870;-74
2021/09/20 13:12:41;;;;;;;;;1.00;1.00;;;;;19.92;43.88;100828.56;4878111;29;8905;-76
2021/09/20 13:15:18;;;;;;;;;3.00;2.00;;;;;19.66;44.59;100826.81;4878891;29;8866;-78
2021/09/20 13:17:58;;;;;;;;;2.00;2.00;;;;;19.83;43.71;100830.13;4878898;29;8874;-77
2021/09/20 13:20:46;;;;;;;;;1.75;1.75;;;;;20.13;43.58;100824.28;4877464;29;8958;-76
2021/09/20 13:23:42;;;;;;;;;1.00;1.00;;;;;20.09;43.01;100823.44;4878385;29;8871;-77
2021/09/20 13:26:09;;;;;;;;;2.75;2.75;;;;;19.79;43.27;100834.94;4878454;29;8905;-75
2021/09/20 13:28:40;;;;;;;;;2.75;2.75;;;;;19.82;43.99;100831.31;4878816;29;8862;-75
2021/09/20 13:31:14;;;;;;;;;1.25;1.25;;;;;19.79;43.71;100832.91;4881089;29;8901;-75
2021/09/20 13:34:09;;;;;;;;;3.75;3.75;;;;;19.66;43.73;100845.63;4863757;29;8979;-75
2021/09/20 13:37:05;;;;;;;;;2.00;2.00;;;;;19.89;44.40;100845.41;4863600;29;8873;-75
2021/09/20 13:40:00;;;;;;;;;1.00;1.00;;;;;19.92;43.17;100851.03;4863417;29;8896;-75
2021/09/20 13:42:56;;;;;;;;;2.00;2.00;;;;;20.02;44.68;100837.47;4871376;29;8882;-78
2021/09/20 13:45:53;;;;;;;;;1.25;1.25;;;;;20.43;42.79;100844.50;4881452;29;8890;-75
2021/09/20 13:48:51;;;;;;;;;4.75;4.75;;;;;20.96;44.05;100848.75;4883216;29;8890;-77
2021/09/20 13:51:20;;;;;;;;;8.50;8.50;;;;;21.22;45.81;100847.56;4882198;29;8893;-75
2021/09/20 13:54:15;;;;;;;;;8.75;8.75;;;;;21.54;43.29;100844.81;4881381;29;8973;-75
2021/09/20 13:57:11;;;;;;;;;1.75;1.75;;;;;21.32;41.02;100850.44;4881800;29;8958;-75
2021/09/20 14:00:08;;;;;;;;;13.00;8.75;;;;;21.31;43.43;100853.63;4873015;29;8932;-75
2021/09/20 14:03:06;;;;;;;;;11.75;11.50;;;;;21.38;45.52;100848.81;4869425;29;8847;-75
2021/09/20 14:06:02;;;;;;;;;14.75;14.75;;;;;21.91;44.54;100855.63;4877014;29;8965;-75
2021/09/20 14:08:58;;;;;;;;;2.75;2.75;;;;;22.02;40.53;100864.88;4871809;29;8967;-75
2021/09/20 14:11:28;;;;;;;;;7.00;7.00;;;;;22.27;41.00;100858.41;4884673;29;8877;-75
2021/09/20 14:14:23;;;;;;;;;2.25;2.25;;;;;22.32;39.55;100858.81;4879020;29;8957;-74
2021/09/20 14:17:00;;;;;;;;;6.00;6.00;;;;;22.04;41.31;100859.66;4875338;29;8901;-75
2021/09/20 14:19:56;;;;;;;;;3.00;3.00;;;;;21.93;40.52;100862.50;4871241;29;8861;-74
2021/09/20 14:22:52;;;;;;;;;2.25;2.25;;;;;22.01;40.74;100868.91;4881972;29;8854;-74
2021/09/20 14:25:37;;;;;;;;;2.60;2.60;;;;;21.75;40.37;100864.50;4877512;29;8915;-73
2021/09/20 14:28:20;;;;;;;;;2.00;2.00;;;;;21.48;41.13;100863.31;4879590;29;8870;-74
2021/09/20 14:31:01;;;;;;;;;2.25;2.25;;;;;21.21;41.93;100869.28;4896090;29;8887;-72
2021/09/20 14:33:57;;;;;;;;;5.25;5.00;;;;;21.25;47.60;100883.34;4888745;29;8882;-72
2021/09/20 14:36:25;;;;;;;;;3.00;3.00;;;;;21.16;41.99;100880.09;4885839;29;8859;-73
2021/09/20 14:38:54;;;;;;;;;4.00;4.00;;;;;21.01;44.38;100876.44;4889269;29;9758;-74
2021/09/20 14:41:50;;;;;;;;;4.00;4.00;;;;;20.88;44.76;100878.84;4887721;29;8968;-75
2021/09/20 14:44:46;;;;;;;;;3.50;3.50;;;;;20.73;47.65;100875.16;4889745;29;9117;-74
2021/09/20 14:47:43;;;;;;;;;2.50;2.50;;;;;20.66;46.93;100885.56;4883535;29;8940;-74
2021/09/20 14:50:39;;;;;;;;;5.00;5.00;;;;;20.73;43.57;100892.03;4881832;29;8831;-74